Terminal Aerodrome Forecast
Issued by NWS

Home | Current Version | Previous Version | Text Only | Print | Product List | Glossary On
Versions: 1 2 3 4 5 6 7 8 9 10 11 12
790
FTUS43 KOAX 231720
TAFCDR
TAF
KCDR 231720Z 2318/2418 34012G22KT P6SM SCT080
     FM240200 02007KT P6SM SKC=

USA.gov is the U.S. government's official web portal to all federal, state and local government web resources and services.